Pasinler, Turkey
Current Conditions -  °F | °C
As of 6:50 PM on Thursday 18 Dec 2014 (Local Time) from LTCE Reporting Station
Broken Clouds Broken Clouds  
Wind Chill: 34°   Ceiling: 8000
Heat Index: 34°   Visibility: 6mi
Dew Point: 27°   Wind: 2mph
Humidity: 75%   Direction: NA
Pressure: 30.12"   Gusts: NA
Location:  39.99°N, 41.69°E
Report Text: LTCE 181550Z VRB02KT 9999 SCT030 BKN080 01/M03 Q1020 NOSIG
Loading
Personal Weather Stations






























Interactive Weather Map New forecast layout! Learn more

10-Day Weather Forecast

Advertisements
Track Severe Weather on mobile